createdAt,value
2023-01-28T00:01:20.060Z,14.50
2023-01-28T00:03:51.803Z,20.20
2023-01-28T00:06:19.725Z,18.40
2023-01-28T00:08:47.236Z,18.10
2023-01-28T00:11:15.073Z,19.50
2023-01-28T00:13:42.876Z,19.70
2023-01-28T00:16:10.575Z,19.10
2023-01-28T00:18:38.392Z,18.50
2023-01-28T00:21:13.257Z,17.70
2023-01-28T00:23:43.438Z,19.10
2023-01-28T00:26:23.133Z,19.40
2023-01-28T00:28:50.372Z,18.00
2023-01-28T00:31:20.965Z,19.20
2023-01-28T00:33:50.661Z,18.20
2023-01-28T00:36:19.805Z,18.70
2023-01-28T00:38:55.039Z,18.70
2023-01-28T00:41:24.510Z,20.60
2023-01-28T00:43:52.866Z,19.50
2023-01-28T00:46:22.206Z,18.20
2023-01-28T00:48:50.056Z,16.70
2023-01-28T00:51:20.250Z,18.10
2023-01-28T00:53:48.037Z,17.40
2023-01-28T00:56:18.238Z,17.00
2023-01-28T00:58:46.277Z,17.00
2023-01-28T01:01:20.582Z,17.60
2023-01-28T01:03:57.889Z,18.40
2023-01-28T01:06:26.134Z,16.80
2023-01-28T01:08:53.312Z,18.30
2023-01-28T01:11:20.726Z,18.80
2023-01-28T01:13:58.098Z,17.90
2023-01-28T01:16:28.413Z,16.90
2023-01-28T01:18:57.183Z,18.70
2023-01-28T01:21:27.501Z,17.10
2023-01-28T01:23:55.291Z,17.70
2023-01-28T01:26:23.875Z,18.20
2023-01-28T01:28:52.887Z,18.10
2023-01-28T01:31:21.771Z,18.50
2023-01-28T01:33:51.991Z,17.90
2023-01-28T01:36:22.497Z,18.90
2023-01-28T01:38:55.634Z,18.50
2023-01-28T01:41:33.835Z,17.10
2023-01-28T01:44:03.995Z,16.30
2023-01-28T01:46:57.830Z,17.10
2023-01-28T01:49:29.379Z,17.10
2023-01-28T01:52:03.700Z,14.70
2023-01-28T01:54:33.496Z,17.60
2023-01-28T01:57:01.961Z,18.80
2023-01-28T01:59:32.859Z,18.20
2023-01-28T02:05:00.638Z,17.30
2023-01-28T02:07:28.431Z,17.80
2023-01-28T02:09:55.924Z,17.80
2023-01-28T02:12:29.316Z,18.60
2023-01-28T02:15:05.571Z,18.70
2023-01-28T02:20:04.915Z,15.80
2023-01-28T02:22:43.907Z,16.20
2023-01-28T02:25:38.948Z,16.50
2023-01-28T02:28:33.571Z,17.40
2023-01-28T02:31:07.996Z,17.40
2023-01-28T02:33:54.529Z,15.20
2023-01-28T02:36:30.285Z,17.80
2023-01-28T02:39:02.293Z,17.50
2023-01-28T02:41:43.217Z,16.80
2023-01-28T02:44:10.543Z,16.80
2023-01-28T02:46:57.326Z,16.90
2023-01-28T02:53:15.958Z,15.50
2023-01-28T02:56:05.136Z,15.20
2023-01-28T02:58:42.542Z,16.00
2023-01-28T03:01:37.158Z,16.80
2023-01-28T03:04:12.080Z,18.10
2023-01-28T03:06:44.896Z,16.80
2023-01-28T03:09:23.441Z,18.20
2023-01-28T03:12:24.441Z,18.30
2023-01-28T03:15:15.130Z,18.00
2023-01-28T03:18:00.996Z,19.30
2023-01-28T03:20:56.647Z,18.60
2023-01-28T03:23:49.966Z,18.10
2023-01-28T03:26:40.264Z,19.00
2023-01-28T03:29:30.276Z,19.60
2023-01-28T03:32:19.901Z,20.60
2023-01-28T03:35:06.833Z,21.80
2023-01-28T03:37:35.519Z,20.70
2023-01-28T03:40:05.527Z,20.80
2023-01-28T03:42:34.288Z,20.70
2023-01-28T03:45:04.460Z,22.40
2023-01-28T03:47:32.912Z,22.20
2023-01-28T03:50:01.085Z,19.80
2023-01-28T03:52:32.473Z,21.20
2023-01-28T03:55:01.382Z,20.60
2023-01-28T03:57:32.114Z,18.10
2023-01-28T03:59:59.905Z,17.00
2023-01-28T04:02:27.712Z,16.40
2023-01-28T04:04:55.443Z,17.10
2023-01-28T04:07:23.840Z,18.80
2023-01-28T04:09:51.234Z,19.70
2023-01-28T04:12:20.265Z,18.10
2023-01-28T04:14:47.821Z,17.50
2023-01-28T04:17:16.109Z,19.50
2023-01-28T04:19:43.723Z,18.00
2023-01-28T04:22:12.450Z,19.60
2023-01-28T04:24:39.995Z,18.50
2023-01-28T04:27:07.775Z,20.30
2023-01-28T04:29:35.077Z,18.20
2023-01-28T04:32:02.490Z,18.10
2023-01-28T04:34:30.457Z,18.40
2023-01-28T04:36:58.955Z,17.20
2023-01-28T04:39:26.606Z,15.90
2023-01-28T04:41:54.497Z,18.30
2023-01-28T04:44:21.907Z,16.10
2023-01-28T04:46:49.462Z,18.90
2023-01-28T04:49:17.163Z,18.50
2023-01-28T04:51:44.837Z,19.70
2023-01-28T04:54:12.267Z,17.30
2023-01-28T04:56:40.705Z,19.30
2023-01-28T04:59:08.912Z,19.20
2023-01-28T05:01:37.047Z,20.10
2023-01-28T05:04:06.325Z,18.20
2023-01-28T05:06:34.748Z,18.30
2023-01-28T05:09:02.348Z,18.40
2023-01-28T05:11:29.689Z,17.60
2023-01-28T05:13:56.905Z,19.30
2023-01-28T05:16:24.627Z,18.50
2023-01-28T05:18:52.077Z,18.60
2023-01-28T05:21:19.447Z,18.80
2023-01-28T05:23:47.032Z,18.20
2023-01-28T05:26:14.773Z,18.20
2023-01-28T05:28:42.050Z,18.20
2023-01-28T05:31:10.595Z,19.20
2023-01-28T05:33:38.434Z,19.20
2023-01-28T05:36:06.120Z,18.60
2023-01-28T05:38:33.460Z,19.30
2023-01-28T05:41:01.364Z,18.80
2023-01-28T05:43:29.316Z,17.50
2023-01-28T05:45:56.648Z,17.20
2023-01-28T05:48:24.234Z,18.80
2023-01-28T05:50:51.773Z,19.50
2023-01-28T05:53:19.154Z,18.80
2023-01-28T05:55:53.970Z,19.60
2023-01-28T05:58:22.807Z,19.30
2023-01-28T06:00:50.447Z,17.40
2023-01-28T06:03:17.877Z,16.20
2023-01-28T06:05:45.356Z,17.00
2023-01-28T06:08:13.055Z,15.70
2023-01-28T06:10:40.872Z,14.10
2023-01-28T06:13:08.245Z,14.80
2023-01-28T06:15:36.260Z,15.40
2023-01-28T06:18:04.813Z,15.20
2023-01-28T06:20:32.138Z,16.00
2023-01-28T06:22:59.547Z,15.60
2023-01-28T06:25:28.162Z,16.20
2023-01-28T06:27:55.760Z,14.50
2023-01-28T06:30:24.223Z,14.10
2023-01-28T06:32:57.178Z,14.70
2023-01-28T06:35:25.242Z,14.00
2023-01-28T06:37:54.490Z,14.60
2023-01-28T06:40:23.661Z,16.60
2023-01-28T06:42:51.203Z,14.50
2023-01-28T06:45:18.517Z,15.20
2023-01-28T06:47:46.009Z,14.20
2023-01-28T06:50:13.922Z,15.80
2023-01-28T06:52:42.164Z,16.30
2023-01-28T06:55:11.225Z,15.30
2023-01-28T06:57:41.993Z,15.10
2023-01-28T07:00:13.804Z,14.50
2023-01-28T07:02:42.187Z,15.60
2023-01-28T07:05:09.907Z,15.80
2023-01-28T07:07:41.755Z,15.30
2023-01-28T07:10:11.186Z,15.30
2023-01-28T07:12:40.317Z,14.40
2023-01-28T07:15:11.444Z,14.50
2023-01-28T07:17:42.770Z,14.80
2023-01-28T07:20:15.925Z,14.40
2023-01-28T07:22:44.956Z,13.40
2023-01-28T07:25:16.466Z,13.20
2023-01-28T07:27:55.900Z,14.80
2023-01-28T07:30:24.663Z,14.80
2023-01-28T07:33:06.094Z,14.50
2023-01-28T07:35:36.285Z,14.70
2023-01-28T07:38:03.680Z,14.10
2023-01-28T07:40:31.345Z,15.70
2023-01-28T07:42:58.635Z,15.00
2023-01-28T07:45:26.401Z,16.30
2023-01-28T07:48:02.971Z,28.50
2023-01-28T07:50:32.021Z,26.80
2023-01-28T07:52:59.833Z,17.60
2023-01-28T07:55:30.980Z,15.80
2023-01-28T07:58:00.469Z,15.40
2023-01-28T08:00:31.739Z,15.20
2023-01-28T08:03:01.576Z,15.10
2023-01-28T08:05:39.632Z,14.50
2023-01-28T08:08:08.795Z,16.40
2023-01-28T08:10:36.260Z,15.80
2023-01-28T08:13:04.102Z,13.90
2023-01-28T08:15:35.082Z,14.00
2023-01-28T08:18:03.590Z,13.30
2023-01-28T08:20:34.974Z,16.00
2023-01-28T08:23:29.271Z,15.10
2023-01-28T08:25:59.463Z,14.90
2023-01-28T08:28:27.710Z,15.20
2023-01-28T08:30:56.308Z,12.90
2023-01-28T08:33:25.086Z,15.00
2023-01-28T08:35:53.763Z,15.40
2023-01-28T08:38:21.283Z,13.80
2023-01-28T08:40:56.286Z,14.90
2023-01-28T08:43:24.895Z,14.80
2023-01-28T08:45:53.217Z,15.80
2023-01-28T08:48:22.504Z,13.90
2023-01-28T08:50:52.027Z,14.20
2023-01-28T08:53:21.291Z,13.30
2023-01-28T08:56:08.857Z,13.00
2023-01-28T08:58:39.345Z,10.90
2023-01-28T09:01:08.476Z,11.90
2023-01-28T09:03:36.885Z,10.30
2023-01-28T09:06:06.927Z,11.20
2023-01-28T09:08:34.794Z,11.60
2023-01-28T09:11:03.428Z,12.10
2023-01-28T09:13:31.315Z,11.40
2023-01-28T09:16:00.739Z,11.80
2023-01-28T09:18:30.517Z,12.50
2023-01-28T09:21:00.535Z,11.10
2023-01-28T09:23:27.871Z,10.70
2023-01-28T09:26:01.415Z,11.00
2023-01-28T09:28:30.351Z,11.40
2023-01-28T09:31:12.247Z,13.60
2023-01-28T09:33:41.502Z,13.00
2023-01-28T09:36:31.719Z,12.10
2023-01-28T09:39:01.847Z,12.20
2023-01-28T09:41:49.939Z,11.00
2023-01-28T09:44:55.435Z,12.90
2023-01-28T09:47:41.997Z,12.20
2023-01-28T09:53:18.944Z,13.20
2023-01-28T09:56:19.075Z,14.40
2023-01-28T09:58:46.367Z,13.60
2023-01-28T10:01:43.314Z,15.30
2023-01-28T10:04:32.426Z,14.10
2023-01-28T10:07:23.580Z,14.10
2023-01-28T10:10:27.212Z,14.80
2023-01-28T10:13:02.749Z,13.60
2023-01-28T10:16:03.601Z,14.60
2023-01-28T10:18:53.837Z,19.80
2023-01-28T10:21:33.465Z,19.00
2023-01-28T10:24:09.996Z,14.50
2023-01-28T10:26:46.935Z,15.60
2023-01-28T10:32:39.185Z,13.70
2023-01-28T10:35:10.398Z,13.70
2023-01-28T10:37:42.666Z,14.20
2023-01-28T10:40:36.250Z,13.80
2023-01-28T10:43:05.735Z,12.60
2023-01-28T10:45:42.125Z,15.00
2023-01-28T10:48:43.189Z,11.70
2023-01-28T10:51:48.694Z,16.00
2023-01-28T10:54:24.010Z,14.10
2023-01-28T10:57:13.687Z,14.70
2023-01-28T10:59:44.604Z,14.80
2023-01-28T11:02:38.375Z,12.50
2023-01-28T11:05:36.945Z,15.10
2023-01-28T11:08:36.561Z,17.40
2023-01-28T11:11:17.892Z,14.90
2023-01-28T11:14:11.955Z,14.80
2023-01-28T11:17:02.572Z,14.40
2023-01-28T11:19:54.433Z,13.40
2023-01-28T11:23:07.078Z,16.10
2023-01-28T11:25:55.305Z,14.90
2023-01-28T11:29:07.763Z,17.30
2023-01-28T11:32:19.813Z,15.40
2023-01-28T11:35:26.461Z,17.30
2023-01-28T11:38:03.915Z,16.30
2023-01-28T11:40:51.300Z,16.30
2023-01-28T11:44:01.241Z,15.00
2023-01-28T11:47:02.880Z,14.90
2023-01-28T11:50:03.104Z,14.80
2023-01-28T11:53:08.146Z,15.60
2023-01-28T11:56:05.892Z,16.50
2023-01-28T11:58:57.652Z,15.40
2023-01-28T12:02:23.557Z,18.80
2023-01-28T12:04:55.311Z,18.60
2023-01-28T12:08:05.748Z,17.90
2023-01-28T12:11:05.238Z,18.90
2023-01-28T12:14:14.387Z,18.60
2023-01-28T12:16:50.272Z,19.20
2023-01-28T12:19:37.824Z,19.10
2023-01-28T12:22:36.909Z,19.20
2023-01-28T12:25:38.311Z,19.80
2023-01-28T12:28:30.961Z,21.10
2023-01-28T12:31:02.220Z,23.00
2023-01-28T12:34:02.445Z,23.40
2023-01-28T12:37:14.446Z,22.00
2023-01-28T12:40:05.201Z,21.30
2023-01-28T12:43:31.275Z,21.20
2023-01-28T12:46:44.626Z,21.70
2023-01-28T12:49:58.577Z,21.10
2023-01-28T12:53:06.400Z,20.90
2023-01-28T12:56:12.299Z,21.30
2023-01-28T12:58:58.412Z,21.60
2023-01-28T13:01:51.544Z,22.30
2023-01-28T13:04:39.602Z,23.00
2023-01-28T13:07:35.088Z,23.20
2023-01-28T13:10:40.486Z,23.70
2023-01-28T13:13:30.489Z,22.50
2023-01-28T13:16:21.262Z,21.20
2023-01-28T13:19:26.304Z,18.50
2023-01-28T13:22:28.063Z,22.10
2023-01-28T13:25:20.405Z,25.60
2023-01-28T13:28:31.377Z,23.80
2023-01-28T13:31:39.488Z,24.90
2023-01-28T13:34:40.065Z,25.40
2023-01-28T13:37:34.383Z,25.10
2023-01-28T13:40:29.480Z,26.70
2023-01-28T13:43:05.152Z,29.10
2023-01-28T13:45:44.501Z,26.60
2023-01-28T13:48:55.095Z,26.60
2023-01-28T13:52:04.985Z,25.40
2023-01-28T13:54:37.083Z,26.30
2023-01-28T13:57:48.277Z,24.20
2023-01-28T14:00:28.302Z,24.90
2023-01-28T14:02:58.642Z,24.50
2023-01-28T14:06:13.195Z,24.30
2023-01-28T14:09:22.588Z,24.60
2023-01-28T14:12:31.925Z,22.20
2023-01-28T14:15:53.769Z,23.00
2023-01-28T14:18:50.798Z,22.60
2023-01-28T14:21:40.863Z,21.60
2023-01-28T14:24:17.605Z,21.70
2023-01-28T14:27:21.007Z,22.40
2023-01-28T14:30:31.233Z,24.30
2023-01-28T14:33:20.569Z,22.30
2023-01-28T14:36:19.228Z,22.00
2023-01-28T14:38:55.289Z,22.60
2023-01-28T14:41:28.493Z,22.40
2023-01-28T14:43:59.646Z,21.20
2023-01-28T14:46:30.226Z,22.30
2023-01-28T14:49:20.367Z,23.10
2023-01-28T14:52:29.649Z,21.50
2023-01-28T14:55:34.223Z,23.10
2023-01-28T14:58:08.483Z,24.30
2023-01-28T15:00:57.090Z,22.80
2023-01-28T15:03:37.007Z,26.00
2023-01-28T15:06:14.327Z,24.60
2023-01-28T15:08:48.957Z,24.70
2023-01-28T15:11:33.811Z,24.20
2023-01-28T15:14:02.902Z,23.60
2023-01-28T15:16:32.091Z,22.60
2023-01-28T15:19:10.806Z,23.00
2023-01-28T15:21:42.944Z,22.90
2023-01-28T15:24:25.977Z,23.80
2023-01-28T15:26:55.724Z,24.60
2023-01-28T15:29:38.006Z,25.10
2023-01-28T15:32:06.778Z,23.20
2023-01-28T15:34:34.244Z,24.70
2023-01-28T15:37:06.811Z,24.20
2023-01-28T15:39:39.509Z,24.60
2023-01-28T15:42:09.985Z,23.70
2023-01-28T15:44:39.848Z,24.30
2023-01-28T15:47:34.187Z,24.90
2023-01-28T15:50:19.793Z,22.90
2023-01-28T15:52:48.215Z,22.70
2023-01-28T15:55:41.204Z,23.50
2023-01-28T15:58:32.117Z,24.50
2023-01-28T16:01:10.455Z,25.70
2023-01-28T16:03:41.489Z,24.80
2023-01-28T16:06:10.315Z,26.20
2023-01-28T16:08:46.942Z,25.70
2023-01-28T16:11:22.190Z,25.70
2023-01-28T16:13:51.090Z,25.80
2023-01-28T16:16:32.011Z,25.50
2023-01-28T16:19:02.467Z,23.90
2023-01-28T16:21:35.620Z,23.10
2023-01-28T16:24:09.412Z,23.60
2023-01-28T16:26:37.141Z,24.90
2023-01-28T16:29:17.087Z,25.10
2023-01-28T16:31:48.328Z,26.50
2023-01-28T16:34:33.124Z,26.90
2023-01-28T16:37:03.115Z,26.50
2023-01-28T16:39:32.189Z,22.30
2023-01-28T16:42:00.938Z,24.90
2023-01-28T16:44:29.232Z,25.40
2023-01-28T16:46:58.198Z,24.60
2023-01-28T16:49:27.399Z,23.40
2023-01-28T16:51:56.032Z,24.20
2023-01-28T16:54:23.987Z,24.50
2023-01-28T16:56:52.223Z,23.70
2023-01-28T16:59:24.110Z,23.90
2023-01-28T17:01:52.890Z,26.60
2023-01-28T17:04:20.829Z,36.50
2023-01-28T17:06:48.474Z,31.50
2023-01-28T17:09:16.511Z,26.50
2023-01-28T17:11:45.038Z,29.80
2023-01-28T17:14:12.991Z,26.60
2023-01-28T17:16:40.791Z,26.20
2023-01-28T17:19:08.954Z,27.80
2023-01-28T17:21:37.104Z,28.90
2023-01-28T17:24:07.035Z,31.30
2023-01-28T17:26:36.156Z,28.90
2023-01-28T17:29:06.366Z,26.80
2023-01-28T17:31:36.819Z,23.30
2023-01-28T17:34:08.237Z,23.20
2023-01-28T17:36:37.619Z,23.70
2023-01-28T17:39:10.242Z,27.10
2023-01-28T17:41:38.264Z,22.90
2023-01-28T17:44:06.754Z,17.10
2023-01-28T17:46:35.960Z,19.20
2023-01-28T17:49:03.903Z,26.70
2023-01-28T17:51:34.584Z,41.00
2023-01-28T17:54:04.033Z,26.00
2023-01-28T17:56:32.512Z,19.90
2023-01-28T17:59:04.395Z,21.20
2023-01-28T18:01:36.251Z,18.30
2023-01-28T18:04:07.026Z,19.20
2023-01-28T18:06:37.980Z,37.10
2023-01-28T18:09:09.746Z,22.20
2023-01-28T18:11:37.468Z,20.10
2023-01-28T18:14:06.014Z,21.40
2023-01-28T18:16:34.804Z,18.90
2023-01-28T18:19:03.448Z,17.10
2023-01-28T18:21:51.778Z,18.60
2023-01-28T18:24:21.632Z,16.10
2023-01-28T18:26:50.413Z,15.10
2023-01-28T18:29:24.527Z,14.30
2023-01-28T18:31:55.557Z,13.50
2023-01-28T18:34:28.070Z,15.40
2023-01-28T18:36:59.232Z,24.10
2023-01-28T18:39:31.229Z,16.00
2023-01-28T18:42:00.616Z,19.20
2023-01-28T18:44:30.506Z,18.80
2023-01-28T18:46:58.419Z,21.30
2023-01-28T18:49:30.327Z,20.40
2023-01-28T18:51:57.981Z,18.90
2023-01-28T18:54:25.888Z,16.00
2023-01-28T18:56:53.741Z,16.00
2023-01-28T18:59:23.711Z,15.60
2023-01-28T19:01:51.838Z,16.10
2023-01-28T19:04:21.386Z,16.30
2023-01-28T19:06:49.878Z,16.80
2023-01-28T19:09:18.350Z,18.00
2023-01-28T19:11:46.619Z,21.10
2023-01-28T19:14:16.092Z,23.50
2023-01-28T19:16:45.423Z,19.40
2023-01-28T19:19:14.695Z,18.90
2023-01-28T19:21:42.827Z,21.00
2023-01-28T19:24:14.842Z,22.40
2023-01-28T19:26:46.878Z,28.10
2023-01-28T19:29:16.439Z,60.90
2023-01-28T19:31:45.674Z,44.70
2023-01-28T19:34:17.835Z,29.00
2023-01-28T19:36:47.330Z,26.00
2023-01-28T19:39:16.159Z,29.50
2023-01-28T19:41:45.579Z,39.70
2023-01-28T19:44:13.909Z,39.50
2023-01-28T19:46:42.071Z,34.10
2023-01-28T19:49:11.880Z,35.50
2023-01-28T19:51:40.365Z,47.00
2023-01-28T19:54:08.228Z,31.80
2023-01-28T19:56:36.790Z,28.00
2023-01-28T19:59:05.173Z,27.60
2023-01-28T20:01:32.935Z,27.80
2023-01-28T20:04:07.165Z,30.00
2023-01-28T20:06:37.334Z,36.80
2023-01-28T20:09:14.745Z,43.30
2023-01-28T20:11:42.377Z,34.20
2023-01-28T20:14:10.936Z,34.50
2023-01-28T20:16:38.818Z,31.30
2023-01-28T20:19:09.374Z,31.10
2023-01-28T20:21:39.232Z,31.20
2023-01-28T20:24:08.148Z,68.10
2023-01-28T20:26:39.381Z,41.30
2023-01-28T20:29:11.623Z,35.00
2023-01-28T20:31:41.090Z,31.30
2023-01-28T20:34:09.719Z,31.70
2023-01-28T20:36:38.343Z,29.80
2023-01-28T20:39:07.662Z,31.00
2023-01-28T20:41:35.743Z,29.80
2023-01-28T20:44:05.786Z,26.00
2023-01-28T20:46:37.100Z,21.90
2023-01-28T20:49:11.651Z,18.60
2023-01-28T20:51:40.148Z,18.30
2023-01-28T20:54:09.223Z,17.00
2023-01-28T20:56:37.532Z,18.20
2023-01-28T20:59:06.778Z,18.20
2023-01-28T21:01:36.088Z,17.90
2023-01-28T21:04:06.001Z,17.70
2023-01-28T21:06:34.477Z,16.80
2023-01-28T21:09:02.143Z,16.20
2023-01-28T21:11:29.759Z,16.80
2023-01-28T21:13:57.918Z,13.90
2023-01-28T21:16:26.664Z,11.40
2023-01-28T21:18:54.916Z,17.20
2023-01-28T21:21:27.640Z,10.50
2023-01-28T21:23:58.240Z,10.70
2023-01-28T21:26:26.669Z,18.10
2023-01-28T21:28:55.246Z,14.80
2023-01-28T21:31:25.925Z,12.80
2023-01-28T21:33:56.491Z,12.80
2023-01-28T21:36:25.271Z,11.20
2023-01-28T21:39:00.953Z,10.50
2023-01-28T21:41:30.003Z,11.90
2023-01-28T21:43:59.018Z,9.80
2023-01-28T21:46:29.549Z,10.10
2023-01-28T21:49:01.395Z,8.30
2023-01-28T21:51:46.504Z,10.30
2023-01-28T21:54:15.235Z,9.40
2023-01-28T21:56:47.372Z,11.60
2023-01-28T21:59:31.134Z,12.90
2023-01-28T22:02:03.550Z,14.40
2023-01-28T22:04:39.434Z,14.00
2023-01-28T22:07:19.263Z,13.80
2023-01-28T22:09:48.011Z,12.70
2023-01-28T22:12:16.019Z,12.90
2023-01-28T22:14:44.314Z,11.50
2023-01-28T22:17:12.381Z,13.50
2023-01-28T22:19:39.986Z,12.20
2023-01-28T22:22:07.529Z,12.40
2023-01-28T22:24:34.989Z,14.30
2023-01-28T22:27:02.278Z,13.10
2023-01-28T22:29:29.694Z,13.20
2023-01-28T22:31:57.633Z,12.20
2023-01-28T22:34:25.261Z,12.00
2023-01-28T22:36:52.880Z,12.60
2023-01-28T22:39:20.354Z,12.70
2023-01-28T22:41:48.606Z,12.50
2023-01-28T22:44:16.780Z,12.00
2023-01-28T22:46:44.307Z,11.70
2023-01-28T22:49:12.714Z,10.80
2023-01-28T22:51:40.038Z,10.30
2023-01-28T22:54:07.744Z,9.60
2023-01-28T22:56:35.093Z,10.20
2023-01-28T22:59:04.513Z,8.80
2023-01-28T23:01:32.378Z,10.10
2023-01-28T23:04:00.115Z,10.20
2023-01-28T23:06:28.915Z,9.80
2023-01-28T23:08:57.006Z,9.80
2023-01-28T23:11:28.842Z,9.70
2023-01-28T23:14:17.308Z,8.90
2023-01-28T23:17:03.443Z,8.80
2023-01-28T23:19:49.873Z,9.40
2023-01-28T23:22:45.516Z,8.50
2023-01-28T23:25:13.519Z,9.60
2023-01-28T23:27:47.038Z,10.50
2023-01-28T23:30:15.613Z,11.60
2023-01-28T23:32:48.544Z,12.80
2023-01-28T23:35:17.330Z,12.40
2023-01-28T23:37:44.914Z,10.30
2023-01-28T23:40:14.083Z,13.00
2023-01-28T23:42:42.339Z,13.00
2023-01-28T23:45:10.876Z,13.80
2023-01-28T23:47:38.494Z,14.30
2023-01-28T23:50:06.001Z,15.30
2023-01-28T23:52:33.323Z,16.40
2023-01-28T23:55:00.619Z,13.50
2023-01-28T23:57:28.495Z,14.60
2023-01-28T23:59:55.846Z,12.30
